sensor_id;sensor_type;location;lat;lon;timestamp;temperature;humidity
48575;DHT22;34352;51.084;3.712;2022-07-10T00:02:13;14.70;99.90
48575;DHT22;34352;51.084;3.712;2022-07-10T00:04:39;14.70;99.90
48575;DHT22;34352;51.084;3.712;2022-07-10T00:07:04;14.60;99.90
48575;DHT22;34352;51.084;3.712;2022-07-10T00:09:31;14.60;99.90
48575;DHT22;34352;51.084;3.712;2022-07-10T00:11:57;14.60;99.90
48575;DHT22;34352;51.084;3.712;2022-07-10T00:14:23;14.60;99.90
48575;DHT22;34352;51.084;3.712;2022-07-10T00:16:49;14.60;99.90
48575;DHT22;34352;51.084;3.712;2022-07-10T00:19:14;14.60;99.90
48575;DHT22;34352;51.084;3.712;2022-07-10T00:21:40;14.50;99.90
48575;DHT22;34352;51.084;3.712;2022-07-10T00:24:06;14.50;99.90
48575;DHT22;34352;51.084;3.712;2022-07-10T00:26:31;14.40;99.90
48575;DHT22;34352;51.084;3.712;2022-07-10T00:28:57;14.40;99.90
48575;DHT22;34352;51.084;3.712;2022-07-10T00:31:22;14.40;99.90
48575;DHT22;34352;51.084;3.712;2022-07-10T00:33:48;14.30;99.90
48575;DHT22;34352;51.084;3.712;2022-07-10T00:36:14;14.20;99.90
48575;DHT22;34352;51.084;3.712;2022-07-10T00:38:40;14.20;99.90
48575;DHT22;34352;51.084;3.712;2022-07-10T00:41:05;14.20;99.90
48575;DHT22;34352;51.084;3.712;2022-07-10T00:43:51;14.20;99.90
48575;DHT22;34352;51.084;3.712;2022-07-10T00:46:18;14.20;99.90
48575;DHT22;34352;51.084;3.712;2022-07-10T00:48:46;14.20;99.90
48575;DHT22;34352;51.084;3.712;2022-07-10T00:51:13;14.10;99.90
48575;DHT22;34352;51.084;3.712;2022-07-10T00:53:39;14.10;99.90
48575;DHT22;34352;51.084;3.712;2022-07-10T00:56:05;14.30;99.90
48575;DHT22;34352;51.084;3.712;2022-07-10T00:58:33;14.30;99.90
48575;DHT22;34352;51.084;3.712;2022-07-10T01:00:59;14.30;99.90
48575;DHT22;34352;51.084;3.712;2022-07-10T01:03:25;14.30;99.90
48575;DHT22;34352;51.084;3.712;2022-07-10T01:05:51;14.20;99.90
48575;DHT22;34352;51.084;3.712;2022-07-10T01:08:16;14.20;99.90
48575;DHT22;34352;51.084;3.712;2022-07-10T01:10:42;14.30;99.90
48575;DHT22;34352;51.084;3.712;2022-07-10T01:13:09;14.20;99.90
48575;DHT22;34352;51.084;3.712;2022-07-10T01:15:36;14.10;99.90
48575;DHT22;34352;51.084;3.712;2022-07-10T01:18:03;14.00;99.90
48575;DHT22;34352;51.084;3.712;2022-07-10T01:20:32;13.90;99.90
48575;DHT22;34352;51.084;3.712;2022-07-10T01:22:57;13.90;99.90
48575;DHT22;34352;51.084;3.712;2022-07-10T01:25:23;14.00;99.90
48575;DHT22;34352;51.084;3.712;2022-07-10T01:27:50;13.90;99.90
48575;DHT22;34352;51.084;3.712;2022-07-10T01:30:16;13.90;99.90
48575;DHT22;34352;51.084;3.712;2022-07-10T01:32:43;13.90;99.90
48575;DHT22;34352;51.084;3.712;2022-07-10T01:35:09;13.90;99.90
48575;DHT22;34352;51.084;3.712;2022-07-10T01:37:35;13.90;99.90
48575;DHT22;34352;51.084;3.712;2022-07-10T01:40:00;13.90;99.90
48575;DHT22;34352;51.084;3.712;2022-07-10T01:42:26;13.80;99.90
48575;DHT22;34352;51.084;3.712;2022-07-10T01:44:52;13.90;99.90
48575;DHT22;34352;51.084;3.712;2022-07-10T01:47:18;13.80;99.90
48575;DHT22;34352;51.084;3.712;2022-07-10T01:49:44;13.70;99.90
48575;DHT22;34352;51.084;3.712;2022-07-10T01:52:10;13.70;99.90
48575;DHT22;34352;51.084;3.712;2022-07-10T01:54:35;13.60;99.90
48575;DHT22;34352;51.084;3.712;2022-07-10T01:57:01;13.70;99.90
48575;DHT22;34352;51.084;3.712;2022-07-10T01:59:27;13.60;99.90
48575;DHT22;34352;51.084;3.712;2022-07-10T02:01:52;13.50;99.90
48575;DHT22;34352;51.084;3.712;2022-07-10T02:04:18;13.50;99.90
48575;DHT22;34352;51.084;3.712;2022-07-10T02:07:02;13.50;99.90
48575;DHT22;34352;51.084;3.712;2022-07-10T02:09:28;13.50;99.90
48575;DHT22;34352;51.084;3.712;2022-07-10T02:11:53;13.50;99.90
48575;DHT22;34352;51.084;3.712;2022-07-10T02:14:19;13.50;99.90
48575;DHT22;34352;51.084;3.712;2022-07-10T02:16:45;13.50;99.90
48575;DHT22;34352;51.084;3.712;2022-07-10T02:19:10;13.60;99.90
48575;DHT22;34352;51.084;3.712;2022-07-10T02:21:36;13.50;99.90
48575;DHT22;34352;51.084;3.712;2022-07-10T02:24:02;13.40;99.90
48575;DHT22;34352;51.084;3.712;2022-07-10T02:26:28;13.40;99.90
48575;DHT22;34352;51.084;3.712;2022-07-10T02:28:53;13.30;99.90
48575;DHT22;34352;51.084;3.712;2022-07-10T02:31:19;13.30;99.90
48575;DHT22;34352;51.084;3.712;2022-07-10T02:33:44;13.30;99.90
48575;DHT22;34352;51.084;3.712;2022-07-10T02:36:10;13.30;99.90
48575;DHT22;34352;51.084;3.712;2022-07-10T02:38:36;13.30;99.90
48575;DHT22;34352;51.084;3.712;2022-07-10T02:41:01;13.30;99.90
48575;DHT22;34352;51.084;3.712;2022-07-10T02:43:27;13.30;99.90
48575;DHT22;34352;51.084;3.712;2022-07-10T02:45:53;13.20;99.90
48575;DHT22;34352;51.084;3.712;2022-07-10T02:48:21;13.20;99.90
48575;DHT22;34352;51.084;3.712;2022-07-10T02:50:47;13.20;99.90
48575;DHT22;34352;51.084;3.712;2022-07-10T02:53:12;13.20;99.90
48575;DHT22;34352;51.084;3.712;2022-07-10T02:55:38;13.20;99.90
48575;DHT22;34352;51.084;3.712;2022-07-10T02:58:04;13.20;99.90
48575;DHT22;34352;51.084;3.712;2022-07-10T03:00:29;13.10;99.90
48575;DHT22;34352;51.084;3.712;2022-07-10T03:02:55;13.20;99.90
48575;DHT22;34352;51.084;3.712;2022-07-10T03:05:21;13.10;99.90
48575;DHT22;34352;51.084;3.712;2022-07-10T03:07:47;13.00;99.90
48575;DHT22;34352;51.084;3.712;2022-07-10T03:10:13;12.90;99.90
48575;DHT22;34352;51.084;3.712;2022-07-10T03:12:39;12.90;99.90
48575;DHT22;34352;51.084;3.712;2022-07-10T03:15:06;12.90;99.90
48575;DHT22;34352;51.084;3.712;2022-07-10T03:17:32;12.90;99.90
48575;DHT22;34352;51.084;3.712;2022-07-10T03:19:58;12.90;99.90
48575;DHT22;34352;51.084;3.712;2022-07-10T03:22:23;12.90;99.90
48575;DHT22;34352;51.084;3.712;2022-07-10T03:24:49;12.90;99.90
48575;DHT22;34352;51.084;3.712;2022-07-10T03:27:15;12.90;99.90
48575;DHT22;34352;51.084;3.712;2022-07-10T03:29:41;12.80;99.90
48575;DHT22;34352;51.084;3.712;2022-07-10T03:32:07;12.90;99.90
48575;DHT22;34352;51.084;3.712;2022-07-10T03:34:32;12.90;99.90
48575;DHT22;34352;51.084;3.712;2022-07-10T03:36:59;12.80;99.90
48575;DHT22;34352;51.084;3.712;2022-07-10T03:39:28;12.80;99.90
48575;DHT22;34352;51.084;3.712;2022-07-10T03:41:53;12.80;99.90
48575;DHT22;34352;51.084;3.712;2022-07-10T03:44:19;12.70;99.90
48575;DHT22;34352;51.084;3.712;2022-07-10T03:46:44;12.70;99.90
48575;DHT22;34352;51.084;3.712;2022-07-10T03:49:10;12.70;99.90
48575;DHT22;34352;51.084;3.712;2022-07-10T03:51:35;12.70;99.90
48575;DHT22;34352;51.084;3.712;2022-07-10T03:54:01;12.70;99.90
48575;DHT22;34352;51.084;3.712;2022-07-10T03:56:27;12.70;99.90
48575;DHT22;34352;51.084;3.712;2022-07-10T03:59:11;12.70;99.90
48575;DHT22;34352;51.084;3.712;2022-07-10T04:01:36;12.80;99.90
48575;DHT22;34352;51.084;3.712;2022-07-10T04:04:02;12.80;99.90
48575;DHT22;34352;51.084;3.712;2022-07-10T04:06:28;12.80;99.90
48575;DHT22;34352;51.084;3.712;2022-07-10T04:08:54;12.90;99.90
48575;DHT22;34352;51.084;3.712;2022-07-10T04:11:19;12.90;99.90
48575;DHT22;34352;51.084;3.712;2022-07-10T04:13:45;12.90;99.90
48575;DHT22;34352;51.084;3.712;2022-07-10T04:16:11;12.90;99.90
48575;DHT22;34352;51.084;3.712;2022-07-10T04:18:39;12.90;99.90
48575;DHT22;34352;51.084;3.712;2022-07-10T04:21:05;13.00;99.90
48575;DHT22;34352;51.084;3.712;2022-07-10T04:23:32;13.00;99.90
48575;DHT22;34352;51.084;3.712;2022-07-10T04:25:58;13.10;99.90
48575;DHT22;34352;51.084;3.712;2022-07-10T04:28:24;13.40;99.90
48575;DHT22;34352;51.084;3.712;2022-07-10T04:30:49;13.60;99.90
48575;DHT22;34352;51.084;3.712;2022-07-10T04:33:15;13.90;99.90
48575;DHT22;34352;51.084;3.712;2022-07-10T04:35:41;14.20;99.90
48575;DHT22;34352;51.084;3.712;2022-07-10T04:38:07;14.40;99.90
48575;DHT22;34352;51.084;3.712;2022-07-10T04:40:33;14.50;99.90
48575;DHT22;34352;51.084;3.712;2022-07-10T04:42:58;14.60;99.90
48575;DHT22;34352;51.084;3.712;2022-07-10T04:45:24;14.80;99.90
48575;DHT22;34352;51.084;3.712;2022-07-10T04:47:51;14.90;99.90
48575;DHT22;34352;51.084;3.712;2022-07-10T04:50:17;15.10;99.90
48575;DHT22;34352;51.084;3.712;2022-07-10T04:52:43;15.20;99.90
48575;DHT22;34352;51.084;3.712;2022-07-10T04:55:08;15.30;99.90
48575;DHT22;34352;51.084;3.712;2022-07-10T04:57:34;15.40;99.90
48575;DHT22;34352;51.084;3.712;2022-07-10T05:00:00;15.50;99.90
48575;DHT22;34352;51.084;3.712;2022-07-10T05:02:26;15.50;99.90
48575;DHT22;34352;51.084;3.712;2022-07-10T05:04:52;15.60;99.90
48575;DHT22;34352;51.084;3.712;2022-07-10T05:07:17;15.80;99.90
48575;DHT22;34352;51.084;3.712;2022-07-10T05:09:43;16.10;99.90
48575;DHT22;34352;51.084;3.712;2022-07-10T05:12:09;16.40;99.90
48575;DHT22;34352;51.084;3.712;2022-07-10T05:14:34;16.80;99.90
48575;DHT22;34352;51.084;3.712;2022-07-10T05:17:00;17.20;99.90
48575;DHT22;34352;51.084;3.712;2022-07-10T05:19:25;17.60;99.90
48575;DHT22;34352;51.084;3.712;2022-07-10T05:21:51;18.00;99.90
48575;DHT22;34352;51.084;3.712;2022-07-10T05:24:17;18.50;99.90
48575;DHT22;34352;51.084;3.712;2022-07-10T05:26:42;18.80;99.90
48575;DHT22;34352;51.084;3.712;2022-07-10T05:29:08;19.10;99.90
48575;DHT22;34352;51.084;3.712;2022-07-10T05:31:34;19.20;99.90
48575;DHT22;34352;51.084;3.712;2022-07-10T05:33:59;19.40;99.90
48575;DHT22;34352;51.084;3.712;2022-07-10T05:36:25;19.60;99.80
48575;DHT22;34352;51.084;3.712;2022-07-10T05:38:51;20.00;99.30
48575;DHT22;34352;51.084;3.712;2022-07-10T05:41:17;20.20;98.50
48575;DHT22;34352;51.084;3.712;2022-07-10T05:43:43;20.30;97.60
48575;DHT22;34352;51.084;3.712;2022-07-10T05:46:09;20.60;97.40
48575;DHT22;34352;51.084;3.712;2022-07-10T05:48:34;20.90;97.00
48575;DHT22;34352;51.084;3.712;2022-07-10T05:51:01;21.50;96.00
48575;DHT22;34352;51.084;3.712;2022-07-10T05:53:27;21.90;94.90
48575;DHT22;34352;51.084;3.712;2022-07-10T05:55:52;22.30;94.10
48575;DHT22;34352;51.084;3.712;2022-07-10T05:58:18;22.80;93.50
48575;DHT22;34352;51.084;3.712;2022-07-10T06:00:44;23.40;92.50
48575;DHT22;34352;51.084;3.712;2022-07-10T06:03:11;23.80;91.40
48575;DHT22;34352;51.084;3.712;2022-07-10T06:05:37;23.80;91.40
48575;DHT22;34352;51.084;3.712;2022-07-10T06:08:04;24.90;90.60
48575;DHT22;34352;51.084;3.712;2022-07-10T06:10:30;25.70;87.90
48575;DHT22;34352;51.084;3.712;2022-07-10T06:12:56;25.90;85.80
48575;DHT22;34352;51.084;3.712;2022-07-10T06:15:21;26.50;86.20
48575;DHT22;34352;51.084;3.712;2022-07-10T06:17:48;26.80;83.50
48575;DHT22;34352;51.084;3.712;2022-07-10T06:20:14;26.80;83.00
48575;DHT22;34352;51.084;3.712;2022-07-10T06:22:39;27.20;81.40
48575;DHT22;34352;51.084;3.712;2022-07-10T06:25:07;27.60;81.20
48575;DHT22;34352;51.084;3.712;2022-07-10T06:27:33;27.80;79.40
48575;DHT22;34352;51.084;3.712;2022-07-10T06:30:00;27.90;79.50
48575;DHT22;34352;51.084;3.712;2022-07-10T06:32:26;27.80;78.00
48575;DHT22;34352;51.084;3.712;2022-07-10T06:34:53;28.20;78.00
48575;DHT22;34352;51.084;3.712;2022-07-10T06:37:19;28.60;78.30
48575;DHT22;34352;51.084;3.712;2022-07-10T06:39:45;29.00;76.10
48575;DHT22;34352;51.084;3.712;2022-07-10T06:42:15;29.30;76.40
48575;DHT22;34352;51.084;3.712;2022-07-10T06:44:44;29.60;75.00
48575;DHT22;34352;51.084;3.712;2022-07-10T06:47:14;29.90;74.30
48575;DHT22;34352;51.084;3.712;2022-07-10T06:49:59;29.90;74.00
48575;DHT22;34352;51.084;3.712;2022-07-10T06:52:25;29.90;73.80
48575;DHT22;34352;51.084;3.712;2022-07-10T06:54:53;30.20;74.20
48575;DHT22;34352;51.084;3.712;2022-07-10T06:57:20;30.50;72.80
48575;DHT22;34352;51.084;3.712;2022-07-10T06:59:46;30.30;72.00
48575;DHT22;34352;51.084;3.712;2022-07-10T07:02:12;30.20;73.10
48575;DHT22;34352;51.084;3.712;2022-07-10T07:04:40;30.20;72.60
48575;DHT22;34352;51.084;3.712;2022-07-10T07:07:05;30.20;71.80
48575;DHT22;34352;51.084;3.712;2022-07-10T07:09:31;30.60;72.40
48575;DHT22;34352;51.084;3.712;2022-07-10T07:11:57;30.80;71.20
48575;DHT22;34352;51.084;3.712;2022-07-10T07:14:23;30.50;71.20
48575;DHT22;34352;51.084;3.712;2022-07-10T07:16:50;30.20;72.10
48575;DHT22;34352;51.084;3.712;2022-07-10T07:19:33;30.20;72.90
48575;DHT22;34352;51.084;3.712;2022-07-10T07:22:20;30.50;72.90
48575;DHT22;34352;51.084;3.712;2022-07-10T07:25:06;31.10;70.80
48575;DHT22;34352;51.084;3.712;2022-07-10T07:27:39;31.80;72.10
48575;DHT22;34352;51.084;3.712;2022-07-10T07:30:12;32.50;68.50
48575;DHT22;34352;51.084;3.712;2022-07-10T07:32:38;32.00;68.40
48575;DHT22;34352;51.084;3.712;2022-07-10T07:35:06;31.00;68.90
48575;DHT22;34352;51.084;3.712;2022-07-10T07:37:50;30.70;69.20
48575;DHT22;34352;51.084;3.712;2022-07-10T07:40:20;31.00;69.70
48575;DHT22;34352;51.084;3.712;2022-07-10T07:42:48;31.70;70.20
48575;DHT22;34352;51.084;3.712;2022-07-10T07:45:14;31.70;68.20
48575;DHT22;34352;51.084;3.712;2022-07-10T07:47:54;31.50;72.30
48575;DHT22;34352;51.084;3.712;2022-07-10T07:50:34;31.70;68.40
48575;DHT22;34352;51.084;3.712;2022-07-10T07:53:04;32.10;68.60
48575;DHT22;34352;51.084;3.712;2022-07-10T07:55:33;31.50;67.80
48575;DHT22;34352;51.084;3.712;2022-07-10T07:57:59;30.70;69.30
48575;DHT22;34352;51.084;3.712;2022-07-10T08:00:26;31.20;69.60
48575;DHT22;34352;51.084;3.712;2022-07-10T08:02:54;32.30;69.10
48575;DHT22;34352;51.084;3.712;2022-07-10T08:05:20;32.60;65.90
48575;DHT22;34352;51.084;3.712;2022-07-10T08:07:49;33.00;68.10
48575;DHT22;34352;51.084;3.712;2022-07-10T08:10:17;33.10;67.70
48575;DHT22;34352;51.084;3.712;2022-07-10T08:12:44;33.10;68.60
48575;DHT22;34352;51.084;3.712;2022-07-10T08:15:12;32.60;65.40
48575;DHT22;34352;51.084;3.712;2022-07-10T08:17:39;31.80;66.20
48575;DHT22;34352;51.084;3.712;2022-07-10T08:20:06;31.90;68.70
48575;DHT22;34352;51.084;3.712;2022-07-10T08:22:32;32.00;67.80
48575;DHT22;34352;51.084;3.712;2022-07-10T08:24:59;32.30;67.20
48575;DHT22;34352;51.084;3.712;2022-07-10T08:27:25;32.60;68.40
48575;DHT22;34352;51.084;3.712;2022-07-10T08:29:51;32.80;67.70
48575;DHT22;34352;51.084;3.712;2022-07-10T08:32:17;33.00;68.60
48575;DHT22;34352;51.084;3.712;2022-07-10T08:34:43;32.20;68.10
48575;DHT22;34352;51.084;3.712;2022-07-10T08:37:09;32.00;69.60
48575;DHT22;34352;51.084;3.712;2022-07-10T08:39:57;32.00;69.10
48575;DHT22;34352;51.084;3.712;2022-07-10T08:42:24;31.50;67.30
48575;DHT22;34352;51.084;3.712;2022-07-10T08:45:11;30.50;68.60
48575;DHT22;34352;51.084;3.712;2022-07-10T08:47:37;30.40;69.90
48575;DHT22;34352;51.084;3.712;2022-07-10T08:50:17;30.20;68.80
48575;DHT22;34352;51.084;3.712;2022-07-10T08:52:51;30.10;70.90
48575;DHT22;34352;51.084;3.712;2022-07-10T08:55:24;30.10;69.80
48575;DHT22;34352;51.084;3.712;2022-07-10T08:57:51;30.30;72.00
48575;DHT22;34352;51.084;3.712;2022-07-10T09:00:23;30.70;70.10
48575;DHT22;34352;51.084;3.712;2022-07-10T09:02:57;30.40;66.50
48575;DHT22;34352;51.084;3.712;2022-07-10T09:05:24;30.30;70.20
48575;DHT22;34352;51.084;3.712;2022-07-10T09:07:51;30.20;70.90
48575;DHT22;34352;51.084;3.712;2022-07-10T09:10:20;29.70;68.90
48575;DHT22;34352;51.084;3.712;2022-07-10T09:12:51;29.80;73.90
48575;DHT22;34352;51.084;3.712;2022-07-10T09:15:19;30.40;68.40
48575;DHT22;34352;51.084;3.712;2022-07-10T09:17:56;30.50;67.30
48575;DHT22;34352;51.084;3.712;2022-07-10T09:20:33;31.10;70.40
48575;DHT22;34352;51.084;3.712;2022-07-10T09:23:18;31.60;71.40
48575;DHT22;34352;51.084;3.712;2022-07-10T09:25:45;32.80;69.40
48575;DHT22;34352;51.084;3.712;2022-07-10T09:28:13;33.20;66.40
48575;DHT22;34352;51.084;3.712;2022-07-10T09:30:41;33.60;67.10
48575;DHT22;34352;51.084;3.712;2022-07-10T09:33:17;34.00;67.50
48575;DHT22;34352;51.084;3.712;2022-07-10T09:35:58;34.20;65.90
48575;DHT22;34352;51.084;3.712;2022-07-10T09:38:48;33.50;64.70
48575;DHT22;34352;51.084;3.712;2022-07-10T09:41:26;32.20;64.80
48575;DHT22;34352;51.084;3.712;2022-07-10T09:44:05;31.20;66.40
48575;DHT22;34352;51.084;3.712;2022-07-10T09:46:34;31.40;71.80
48575;DHT22;34352;51.084;3.712;2022-07-10T09:49:11;32.00;67.90
48575;DHT22;34352;51.084;3.712;2022-07-10T09:51:42;32.50;69.30
48575;DHT22;34352;51.084;3.712;2022-07-10T09:54:09;32.90;67.80
48575;DHT22;34352;51.084;3.712;2022-07-10T09:56:50;33.30;66.70
48575;DHT22;34352;51.084;3.712;2022-07-10T09:59:19;33.30;65.60
48575;DHT22;34352;51.084;3.712;2022-07-10T10:01:47;33.40;66.30
48575;DHT22;34352;51.084;3.712;2022-07-10T10:04:17;32.40;66.80
48575;DHT22;34352;51.084;3.712;2022-07-10T10:06:46;31.90;66.70
48575;DHT22;34352;51.084;3.712;2022-07-10T10:09:22;31.50;68.20
48575;DHT22;34352;51.084;3.712;2022-07-10T10:11:51;31.20;67.10
48575;DHT22;34352;51.084;3.712;2022-07-10T10:14:20;31.40;68.40
48575;DHT22;34352;51.084;3.712;2022-07-10T10:16:48;31.50;67.30
48575;DHT22;34352;51.084;3.712;2022-07-10T10:19:14;31.90;69.10
48575;DHT22;34352;51.084;3.712;2022-07-10T10:21:59;31.90;68.40
48575;DHT22;34352;51.084;3.712;2022-07-10T10:24:31;32.20;68.40
48575;DHT22;34352;51.084;3.712;2022-07-10T10:26:57;32.60;67.20
48575;DHT22;34352;51.084;3.712;2022-07-10T10:29:23;33.10;64.80
48575;DHT22;34352;51.084;3.712;2022-07-10T10:31:49;33.20;65.90
48575;DHT22;34352;51.084;3.712;2022-07-10T10:34:37;33.30;66.20
48575;DHT22;34352;51.084;3.712;2022-07-10T10:37:03;34.00;64.50
48575;DHT22;34352;51.084;3.712;2022-07-10T10:39:29;34.60;65.20
48575;DHT22;34352;51.084;3.712;2022-07-10T10:41:55;35.10;64.10
48575;DHT22;34352;51.084;3.712;2022-07-10T10:44:22;35.40;61.70
48575;DHT22;34352;51.084;3.712;2022-07-10T10:47:01;35.80;64.20
48575;DHT22;34352;51.084;3.712;2022-07-10T10:49:50;36.40;62.50
48575;DHT22;34352;51.084;3.712;2022-07-10T10:52:17;36.50;61.90
48575;DHT22;34352;51.084;3.712;2022-07-10T10:57:21;35.20;61.30
48575;DHT22;34352;51.084;3.712;2022-07-10T10:59:51;34.70;62.60
48575;DHT22;34352;51.084;3.712;2022-07-10T11:02:25;34.40;63.30
48575;DHT22;34352;51.084;3.712;2022-07-10T11:05:32;33.80;64.40
48575;DHT22;34352;51.084;3.712;2022-07-10T11:07:57;33.10;63.20
48575;DHT22;34352;51.084;3.712;2022-07-10T11:10:33;32.90;65.00
48575;DHT22;34352;51.084;3.712;2022-07-10T11:15:33;32.80;66.30
48575;DHT22;34352;51.084;3.712;2022-07-10T11:18:04;33.10;66.60
48575;DHT22;34352;51.084;3.712;2022-07-10T11:20:37;33.30;67.50
48575;DHT22;34352;51.084;3.712;2022-07-10T11:26:06;33.70;65.10
48575;DHT22;34352;51.084;3.712;2022-07-10T11:28:55;33.80;64.80
48575;DHT22;34352;51.084;3.712;2022-07-10T11:31:22;33.80;64.90
48575;DHT22;34352;51.084;3.712;2022-07-10T11:33:51;34.10;65.00
48575;DHT22;34352;51.084;3.712;2022-07-10T11:36:19;34.60;64.90
48575;DHT22;34352;51.084;3.712;2022-07-10T11:38:47;34.70;64.10
48575;DHT22;34352;51.084;3.712;2022-07-10T11:41:15;35.00;63.20
48575;DHT22;34352;51.084;3.712;2022-07-10T11:43:56;35.10;63.00
48575;DHT22;34352;51.084;3.712;2022-07-10T11:46:30;35.20;63.50
48575;DHT22;34352;51.084;3.712;2022-07-10T11:48:57;35.50;62.50
48575;DHT22;34352;51.084;3.712;2022-07-10T11:51:25;36.30;62.60
48575;DHT22;34352;51.084;3.712;2022-07-10T11:54:02;35.70;59.70
48575;DHT22;34352;51.084;3.712;2022-07-10T11:56:32;35.00;60.00
48575;DHT22;34352;51.084;3.712;2022-07-10T11:59:03;35.60;65.50
48575;DHT22;34352;51.084;3.712;2022-07-10T12:01:31;36.60;63.30
48575;DHT22;34352;51.084;3.712;2022-07-10T12:04:01;37.80;63.80
48575;DHT22;34352;51.084;3.712;2022-07-10T12:06:32;38.00;60.20
48575;DHT22;34352;51.084;3.712;2022-07-10T12:09:05;38.30;59.00
48575;DHT22;34352;51.084;3.712;2022-07-10T12:11:32;38.50;59.60
48575;DHT22;34352;51.084;3.712;2022-07-10T12:14:16;38.10;60.30
48575;DHT22;34352;51.084;3.712;2022-07-10T12:16:47;37.00;61.10
48575;DHT22;34352;51.084;3.712;2022-07-10T12:19:14;36.70;61.10
48575;DHT22;34352;51.084;3.712;2022-07-10T12:21:42;36.90;61.60
48575;DHT22;34352;51.084;3.712;2022-07-10T12:24:08;37.20;61.60
48575;DHT22;34352;51.084;3.712;2022-07-10T12:26:37;38.20;60.80
48575;DHT22;34352;51.084;3.712;2022-07-10T12:29:03;38.20;58.90
48575;DHT22;34352;51.084;3.712;2022-07-10T12:31:31;38.80;60.50
48575;DHT22;34352;51.084;3.712;2022-07-10T12:34:02;38.70;60.10
48575;DHT22;34352;51.084;3.712;2022-07-10T12:39:19;38.80;58.00
48575;DHT22;34352;51.084;3.712;2022-07-10T12:42:04;38.30;59.50
48575;DHT22;34352;51.084;3.712;2022-07-10T12:44:44;38.40;59.10
48575;DHT22;34352;51.084;3.712;2022-07-10T12:47:18;37.60;58.70
48575;DHT22;34352;51.084;3.712;2022-07-10T12:49:56;37.20;59.30
48575;DHT22;34352;51.084;3.712;2022-07-10T12:52:29;37.20;59.00
48575;DHT22;34352;51.084;3.712;2022-07-10T12:55:16;37.70;59.90
48575;DHT22;34352;51.084;3.712;2022-07-10T13:00:22;37.80;59.20
48575;DHT22;34352;51.084;3.712;2022-07-10T13:02:48;37.90;59.30
48575;DHT22;34352;51.084;3.712;2022-07-10T13:08:21;36.80;57.60
48575;DHT22;34352;51.084;3.712;2022-07-10T13:10:56;37.20;59.90
48575;DHT22;34352;51.084;3.712;2022-07-10T13:13:22;36.90;58.80
48575;DHT22;34352;51.084;3.712;2022-07-10T13:15:48;37.20;59.80
48575;DHT22;34352;51.084;3.712;2022-07-10T13:18:24;37.40;59.80
48575;DHT22;34352;51.084;3.712;2022-07-10T13:20:53;37.30;59.60
48575;DHT22;34352;51.084;3.712;2022-07-10T13:23:19;37.10;59.20
48575;DHT22;34352;51.084;3.712;2022-07-10T13:25:49;37.10;59.40
48575;DHT22;34352;51.084;3.712;2022-07-10T13:28:15;36.40;59.80
48575;DHT22;34352;51.084;3.712;2022-07-10T13:30:44;36.50;61.20
48575;DHT22;34352;51.084;3.712;2022-07-10T13:33:10;36.90;59.50
48575;DHT22;34352;51.084;3.712;2022-07-10T13:35:36;37.00;59.80
48575;DHT22;34352;51.084;3.712;2022-07-10T13:38:03;36.90;60.70
48575;DHT22;34352;51.084;3.712;2022-07-10T13:40:33;36.30;60.40
48575;DHT22;34352;51.084;3.712;2022-07-10T13:42:59;36.40;60.60
48575;DHT22;34352;51.084;3.712;2022-07-10T13:45:26;36.60;60.90
48575;DHT22;34352;51.084;3.712;2022-07-10T13:47:55;36.40;60.00
48575;DHT22;34352;51.084;3.712;2022-07-10T13:50:27;36.50;59.80
48575;DHT22;34352;51.084;3.712;2022-07-10T13:52:59;35.90;57.70
48575;DHT22;34352;51.084;3.712;2022-07-10T13:55:25;36.00;60.40
48575;DHT22;34352;51.084;3.712;2022-07-10T13:57:51;35.40;61.00
48575;DHT22;34352;51.084;3.712;2022-07-10T14:00:16;34.70;59.10
48575;DHT22;34352;51.084;3.712;2022-07-10T14:02:42;34.40;61.80
48575;DHT22;34352;51.084;3.712;2022-07-10T14:05:08;34.50;61.80
48575;DHT22;34352;51.084;3.712;2022-07-10T14:07:34;34.20;61.30
48575;DHT22;34352;51.084;3.712;2022-07-10T14:09:59;34.20;60.80
48575;DHT22;34352;51.084;3.712;2022-07-10T14:12:26;33.80;59.50
48575;DHT22;34352;51.084;3.712;2022-07-10T14:14:52;33.20;60.00
48575;DHT22;34352;51.084;3.712;2022-07-10T14:17:18;32.90;62.60
48575;DHT22;34352;51.084;3.712;2022-07-10T14:19:44;32.00;63.50
48575;DHT22;34352;51.084;3.712;2022-07-10T14:22:11;31.70;63.20
48575;DHT22;34352;51.084;3.712;2022-07-10T14:24:37;31.30;64.80
48575;DHT22;34352;51.084;3.712;2022-07-10T14:27:04;30.90;64.60
48575;DHT22;34352;51.084;3.712;2022-07-10T14:29:30;30.60;65.70
48575;DHT22;34352;51.084;3.712;2022-07-10T14:35:17;30.10;66.60
48575;DHT22;34352;51.084;3.712;2022-07-10T14:40:35;29.70;67.20
48575;DHT22;34352;51.084;3.712;2022-07-10T14:43:01;29.60;66.80
48575;DHT22;34352;51.084;3.712;2022-07-10T14:45:27;29.40;66.50
48575;DHT22;34352;51.084;3.712;2022-07-10T14:47:52;29.10;67.10
48575;DHT22;34352;51.084;3.712;2022-07-10T14:50:20;29.10;66.70
48575;DHT22;34352;51.084;3.712;2022-07-10T14:52:45;29.00;68.70
48575;DHT22;34352;51.084;3.712;2022-07-10T14:55:11;28.80;67.00
48575;DHT22;34352;51.084;3.712;2022-07-10T14:57:37;28.60;66.80
48575;DHT22;34352;51.084;3.712;2022-07-10T15:00:04;28.30;66.80
48575;DHT22;34352;51.084;3.712;2022-07-10T15:02:33;28.30;66.10
48575;DHT22;34352;51.084;3.712;2022-07-10T15:04:58;28.20;67.80
48575;DHT22;34352;51.084;3.712;2022-07-10T15:07:27;28.20;67.80
48575;DHT22;34352;51.084;3.712;2022-07-10T15:09:52;28.10;66.80
48575;DHT22;34352;51.084;3.712;2022-07-10T15:12:18;28.10;69.20
48575;DHT22;34352;51.084;3.712;2022-07-10T15:14:46;28.10;68.70
48575;DHT22;34352;51.084;3.712;2022-07-10T15:17:12;28.00;67.40
48575;DHT22;34352;51.084;3.712;2022-07-10T15:19:38;28.00;68.60
48575;DHT22;34352;51.084;3.712;2022-07-10T15:22:03;27.90;65.90
48575;DHT22;34352;51.084;3.712;2022-07-10T15:24:32;27.90;68.60
48575;DHT22;34352;51.084;3.712;2022-07-10T15:26:57;28.00;67.30
48575;DHT22;34352;51.084;3.712;2022-07-10T15:29:24;28.00;68.10
48575;DHT22;34352;51.084;3.712;2022-07-10T15:31:51;27.90;66.40
48575;DHT22;34352;51.084;3.712;2022-07-10T15:34:18;28.00;67.10
48575;DHT22;34352;51.084;3.712;2022-07-10T15:36:46;28.00;68.10
48575;DHT22;34352;51.084;3.712;2022-07-10T15:39:14;28.00;67.70
48575;DHT22;34352;51.084;3.712;2022-07-10T15:41:39;28.00;67.90
48575;DHT22;34352;51.084;3.712;2022-07-10T15:44:12;28.00;66.70
48575;DHT22;34352;51.084;3.712;2022-07-10T15:46:38;27.70;67.80
48575;DHT22;34352;51.084;3.712;2022-07-10T15:49:04;27.40;67.70
48575;DHT22;34352;51.084;3.712;2022-07-10T15:51:31;27.50;68.20
48575;DHT22;34352;51.084;3.712;2022-07-10T15:53:57;27.50;68.20
48575;DHT22;34352;51.084;3.712;2022-07-10T15:56:25;27.50;68.30
48575;DHT22;34352;51.084;3.712;2022-07-10T15:58:50;27.50;67.80
48575;DHT22;34352;51.084;3.712;2022-07-10T16:01:16;27.30;69.30